sensor_id;sensor_type;location;lat;lon;timestamp;temperature;humidity
19206;DHT22;59358;52.134;5.596;2024-01-15T00:01:49;1.60;99.90
19206;DHT22;59358;52.134;5.596;2024-01-15T00:04:16;1.50;99.90
19206;DHT22;59358;52.134;5.596;2024-01-15T00:06:43;1.50;99.90
19206;DHT22;59358;52.134;5.596;2024-01-15T00:09:10;1.50;99.90
19206;DHT22;59358;52.134;5.596;2024-01-15T00:11:37;1.50;99.90
19206;DHT22;59358;52.134;5.596;2024-01-15T00:14:03;1.40;99.90
19206;DHT22;59358;52.134;5.596;2024-01-15T00:16:31;1.40;99.90
19206;DHT22;59358;52.134;5.596;2024-01-15T00:18:58;1.40;99.90
19206;DHT22;59358;52.134;5.596;2024-01-15T00:21:25;1.40;99.90
19206;DHT22;59358;52.134;5.596;2024-01-15T00:23:52;1.40;99.90
19206;DHT22;59358;52.134;5.596;2024-01-15T00:26:19;1.30;99.90
19206;DHT22;59358;52.134;5.596;2024-01-15T00:28:46;1.30;99.90
19206;DHT22;59358;52.134;5.596;2024-01-15T00:31:13;1.30;99.90
19206;DHT22;59358;52.134;5.596;2024-01-15T00:33:43;1.30;99.90
19206;DHT22;59358;52.134;5.596;2024-01-15T00:36:10;1.20;99.90
19206;DHT22;59358;52.134;5.596;2024-01-15T00:38:37;1.20;99.90
19206;DHT22;59358;52.134;5.596;2024-01-15T00:41:04;1.20;99.90
19206;DHT22;59358;52.134;5.596;2024-01-15T00:43:31;1.20;99.90
19206;DHT22;59358;52.134;5.596;2024-01-15T00:45:57;1.20;99.90
19206;DHT22;59358;52.134;5.596;2024-01-15T00:48:24;1.20;99.90
19206;DHT22;59358;52.134;5.596;2024-01-15T00:50:52;1.20;99.90
19206;DHT22;59358;52.134;5.596;2024-01-15T00:53:19;1.20;99.90
19206;DHT22;59358;52.134;5.596;2024-01-15T00:55:47;1.10;99.90
19206;DHT22;59358;52.134;5.596;2024-01-15T00:58:14;1.20;99.90
19206;DHT22;59358;52.134;5.596;2024-01-15T01:00:41;1.20;99.90
19206;DHT22;59358;52.134;5.596;2024-01-15T01:03:08;1.10;99.90
19206;DHT22;59358;52.134;5.596;2024-01-15T01:05:35;1.10;99.90
19206;DHT22;59358;52.134;5.596;2024-01-15T01:08:03;1.10;99.90
19206;DHT22;59358;52.134;5.596;2024-01-15T01:10:30;1.10;99.90
19206;DHT22;59358;52.134;5.596;2024-01-15T01:12:57;1.10;99.90
19206;DHT22;59358;52.134;5.596;2024-01-15T01:15:24;1.00;99.90
19206;DHT22;59358;52.134;5.596;2024-01-15T01:17:51;1.00;99.90
19206;DHT22;59358;52.134;5.596;2024-01-15T01:20:17;1.00;99.90
19206;DHT22;59358;52.134;5.596;2024-01-15T01:22:44;1.00;99.90
19206;DHT22;59358;52.134;5.596;2024-01-15T01:25:12;1.00;99.90
19206;DHT22;59358;52.134;5.596;2024-01-15T01:27:39;1.10;99.90
19206;DHT22;59358;52.134;5.596;2024-01-15T01:30:06;1.10;99.90
19206;DHT22;59358;52.134;5.596;2024-01-15T01:32:33;1.10;99.90
19206;DHT22;59358;52.134;5.596;2024-01-15T01:35:00;1.00;99.90
19206;DHT22;59358;52.134;5.596;2024-01-15T01:37:27;1.00;99.90
19206;DHT22;59358;52.134;5.596;2024-01-15T01:39:54;1.00;99.90
19206;DHT22;59358;52.134;5.596;2024-01-15T01:42:22;1.00;99.90
19206;DHT22;59358;52.134;5.596;2024-01-15T01:44:49;1.00;99.90
19206;DHT22;59358;52.134;5.596;2024-01-15T01:47:15;1.00;99.90
19206;DHT22;59358;52.134;5.596;2024-01-15T01:49:42;1.00;99.90
19206;DHT22;59358;52.134;5.596;2024-01-15T01:52:10;0.90;99.90
19206;DHT22;59358;52.134;5.596;2024-01-15T01:54:38;0.90;99.90
19206;DHT22;59358;52.134;5.596;2024-01-15T01:57:08;0.90;99.90
19206;DHT22;59358;52.134;5.596;2024-01-15T01:59:37;0.90;99.90
19206;DHT22;59358;52.134;5.596;2024-01-15T02:02:04;0.90;99.90
19206;DHT22;59358;52.134;5.596;2024-01-15T02:04:32;0.80;99.90
19206;DHT22;59358;52.134;5.596;2024-01-15T02:06:59;0.80;99.90
19206;DHT22;59358;52.134;5.596;2024-01-15T02:09:26;0.80;99.90
19206;DHT22;59358;52.134;5.596;2024-01-15T02:11:53;0.70;99.90
19206;DHT22;59358;52.134;5.596;2024-01-15T02:14:20;0.80;99.90
19206;DHT22;59358;52.134;5.596;2024-01-15T02:16:48;0.80;99.90
19206;DHT22;59358;52.134;5.596;2024-01-15T02:19:15;1.00;99.90
19206;DHT22;59358;52.134;5.596;2024-01-15T02:21:43;1.10;99.90
19206;DHT22;59358;52.134;5.596;2024-01-15T02:24:11;1.20;99.90
19206;DHT22;59358;52.134;5.596;2024-01-15T02:26:38;1.30;99.90
19206;DHT22;59358;52.134;5.596;2024-01-15T02:29:07;1.30;99.90
19206;DHT22;59358;52.134;5.596;2024-01-15T02:31:35;1.30;99.90
19206;DHT22;59358;52.134;5.596;2024-01-15T02:34:01;1.20;99.90
19206;DHT22;59358;52.134;5.596;2024-01-15T02:36:28;1.20;99.90
19206;DHT22;59358;52.134;5.596;2024-01-15T02:38:55;1.20;99.90
19206;DHT22;59358;52.134;5.596;2024-01-15T02:41:23;1.20;99.90
19206;DHT22;59358;52.134;5.596;2024-01-15T02:43:50;1.30;99.90
19206;DHT22;59358;52.134;5.596;2024-01-15T02:46:16;1.30;99.90
19206;DHT22;59358;52.134;5.596;2024-01-15T02:48:43;1.40;99.90
19206;DHT22;59358;52.134;5.596;2024-01-15T02:51:09;1.40;99.90
19206;DHT22;59358;52.134;5.596;2024-01-15T02:53:36;1.40;99.90
19206;DHT22;59358;52.134;5.596;2024-01-15T02:56:03;1.40;99.90
19206;DHT22;59358;52.134;5.596;2024-01-15T02:58:31;1.50;99.90
19206;DHT22;59358;52.134;5.596;2024-01-15T03:00:58;1.50;99.90
19206;DHT22;59358;52.134;5.596;2024-01-15T03:03:25;1.60;99.90
19206;DHT22;59358;52.134;5.596;2024-01-15T03:05:52;1.60;99.90
19206;DHT22;59358;52.134;5.596;2024-01-15T03:08:19;1.50;99.90
19206;DHT22;59358;52.134;5.596;2024-01-15T03:10:45;1.50;99.90
19206;DHT22;59358;52.134;5.596;2024-01-15T03:13:12;1.50;99.90
19206;DHT22;59358;52.134;5.596;2024-01-15T03:15:40;1.50;99.90
19206;DHT22;59358;52.134;5.596;2024-01-15T03:18:07;1.50;99.90
19206;DHT22;59358;52.134;5.596;2024-01-15T03:20:34;1.50;99.90
19206;DHT22;59358;52.134;5.596;2024-01-15T03:23:01;1.50;99.90
19206;DHT22;59358;52.134;5.596;2024-01-15T03:25:28;1.60;99.90
19206;DHT22;59358;52.134;5.596;2024-01-15T03:27:54;1.70;99.90
19206;DHT22;59358;52.134;5.596;2024-01-15T03:30:21;1.80;99.90
19206;DHT22;59358;52.134;5.596;2024-01-15T03:32:50;1.80;99.90
19206;DHT22;59358;52.134;5.596;2024-01-15T03:35:16;1.90;99.90
19206;DHT22;59358;52.134;5.596;2024-01-15T03:37:43;1.90;99.90
19206;DHT22;59358;52.134;5.596;2024-01-15T03:40:11;2.00;99.90
19206;DHT22;59358;52.134;5.596;2024-01-15T03:42:38;1.90;99.90
19206;DHT22;59358;52.134;5.596;2024-01-15T03:45:05;2.00;99.90
19206;DHT22;59358;52.134;5.596;2024-01-15T03:47:32;1.90;99.90
19206;DHT22;59358;52.134;5.596;2024-01-15T03:50:00;2.00;99.90
19206;DHT22;59358;52.134;5.596;2024-01-15T03:52:27;1.90;99.90
19206;DHT22;59358;52.134;5.596;2024-01-15T03:54:54;1.90;99.90
19206;DHT22;59358;52.134;5.596;2024-01-15T03:57:21;1.90;99.90
19206;DHT22;59358;52.134;5.596;2024-01-15T03:59:47;1.90;99.90
19206;DHT22;59358;52.134;5.596;2024-01-15T04:02:14;1.90;99.90
19206;DHT22;59358;52.134;5.596;2024-01-15T04:04:42;1.70;99.90
19206;DHT22;59358;52.134;5.596;2024-01-15T04:07:10;1.60;99.90
19206;DHT22;59358;52.134;5.596;2024-01-15T04:09:37;1.50;99.90
19206;DHT22;59358;52.134;5.596;2024-01-15T04:12:04;1.40;99.90
19206;DHT22;59358;52.134;5.596;2024-01-15T04:14:31;1.40;99.90
19206;DHT22;59358;52.134;5.596;2024-01-15T04:16:58;1.30;99.90
19206;DHT22;59358;52.134;5.596;2024-01-15T04:19:24;1.20;99.90
19206;DHT22;59358;52.134;5.596;2024-01-15T04:21:51;1.20;99.90
19206;DHT22;59358;52.134;5.596;2024-01-15T04:24:19;1.20;99.90
19206;DHT22;59358;52.134;5.596;2024-01-15T04:26:46;1.10;99.90
19206;DHT22;59358;52.134;5.596;2024-01-15T04:29:13;1.20;99.90
19206;DHT22;59358;52.134;5.596;2024-01-15T04:31:39;1.10;99.90
19206;DHT22;59358;52.134;5.596;2024-01-15T04:34:06;1.20;99.90
19206;DHT22;59358;52.134;5.596;2024-01-15T04:36:38;1.10;99.90
19206;DHT22;59358;52.134;5.596;2024-01-15T04:39:05;1.10;99.90
19206;DHT22;59358;52.134;5.596;2024-01-15T04:41:33;1.00;99.90
19206;DHT22;59358;52.134;5.596;2024-01-15T04:44:00;1.00;99.90
19206;DHT22;59358;52.134;5.596;2024-01-15T04:46:27;1.00;99.90
19206;DHT22;59358;52.134;5.596;2024-01-15T04:48:54;1.10;99.90
19206;DHT22;59358;52.134;5.596;2024-01-15T04:51:21;1.10;99.90
19206;DHT22;59358;52.134;5.596;2024-01-15T04:53:47;1.10;99.90
19206;DHT22;59358;52.134;5.596;2024-01-15T04:56:14;1.10;99.90
19206;DHT22;59358;52.134;5.596;2024-01-15T04:58:42;1.10;99.90
19206;DHT22;59358;52.134;5.596;2024-01-15T05:01:09;1.10;99.90
19206;DHT22;59358;52.134;5.596;2024-01-15T05:03:36;1.10;99.90
19206;DHT22;59358;52.134;5.596;2024-01-15T05:06:02;1.10;99.90
19206;DHT22;59358;52.134;5.596;2024-01-15T05:08:29;1.10;99.90
19206;DHT22;59358;52.134;5.596;2024-01-15T05:10:56;1.20;99.90
19206;DHT22;59358;52.134;5.596;2024-01-15T05:13:23;1.20;99.90
19206;DHT22;59358;52.134;5.596;2024-01-15T05:15:51;1.30;99.90
19206;DHT22;59358;52.134;5.596;2024-01-15T05:18:17;1.30;99.90
19206;DHT22;59358;52.134;5.596;2024-01-15T05:20:44;1.40;99.90
19206;DHT22;59358;52.134;5.596;2024-01-15T05:23:11;1.40;99.90
19206;DHT22;59358;52.134;5.596;2024-01-15T05:25:38;1.40;99.90
19206;DHT22;59358;52.134;5.596;2024-01-15T05:28:05;1.40;99.90
19206;DHT22;59358;52.134;5.596;2024-01-15T05:30:32;1.40;99.90
19206;DHT22;59358;52.134;5.596;2024-01-15T05:33:00;1.50;99.90
19206;DHT22;59358;52.134;5.596;2024-01-15T05:35:28;1.50;99.90
19206;DHT22;59358;52.134;5.596;2024-01-15T05:37:55;1.40;99.90
19206;DHT22;59358;52.134;5.596;2024-01-15T05:40:21;1.50;99.90
19206;DHT22;59358;52.134;5.596;2024-01-15T05:42:48;1.60;99.90
19206;DHT22;59358;52.134;5.596;2024-01-15T05:45:15;1.60;99.90
19206;DHT22;59358;52.134;5.596;2024-01-15T05:47:42;1.60;99.90
19206;DHT22;59358;52.134;5.596;2024-01-15T05:50:11;1.60;99.90
19206;DHT22;59358;52.134;5.596;2024-01-15T05:52:38;1.60;99.90
19206;DHT22;59358;52.134;5.596;2024-01-15T05:55:05;1.60;99.90
19206;DHT22;59358;52.134;5.596;2024-01-15T05:57:32;1.60;99.90
19206;DHT22;59358;52.134;5.596;2024-01-15T05:59:59;1.70;99.90
19206;DHT22;59358;52.134;5.596;2024-01-15T06:02:26;1.70;99.90
19206;DHT22;59358;52.134;5.596;2024-01-15T06:04:53;1.70;99.90
19206;DHT22;59358;52.134;5.596;2024-01-15T06:07:22;1.80;99.90
19206;DHT22;59358;52.134;5.596;2024-01-15T06:09:49;1.80;99.90
19206;DHT22;59358;52.134;5.596;2024-01-15T06:12:16;1.70;99.90
19206;DHT22;59358;52.134;5.596;2024-01-15T06:14:43;1.70;99.90
19206;DHT22;59358;52.134;5.596;2024-01-15T06:17:09;1.60;99.90
19206;DHT22;59358;52.134;5.596;2024-01-15T06:19:36;1.50;99.90
19206;DHT22;59358;52.134;5.596;2024-01-15T06:22:03;1.50;99.90
19206;DHT22;59358;52.134;5.596;2024-01-15T06:24:31;1.50;99.90
19206;DHT22;59358;52.134;5.596;2024-01-15T06:26:59;1.40;99.90
19206;DHT22;59358;52.134;5.596;2024-01-15T06:29:26;1.30;99.90
19206;DHT22;59358;52.134;5.596;2024-01-15T06:31:53;1.30;99.90
19206;DHT22;59358;52.134;5.596;2024-01-15T06:34:20;1.30;99.90
19206;DHT22;59358;52.134;5.596;2024-01-15T06:36:47;1.30;99.90
19206;DHT22;59358;52.134;5.596;2024-01-15T06:39:14;1.30;99.90
19206;DHT22;59358;52.134;5.596;2024-01-15T06:41:42;1.20;99.90
19206;DHT22;59358;52.134;5.596;2024-01-15T06:44:09;1.30;99.90
19206;DHT22;59358;52.134;5.596;2024-01-15T06:46:36;1.20;99.90
19206;DHT22;59358;52.134;5.596;2024-01-15T06:49:03;1.20;99.90
19206;DHT22;59358;52.134;5.596;2024-01-15T06:51:30;1.20;99.90
19206;DHT22;59358;52.134;5.596;2024-01-15T06:53:57;1.30;99.90
19206;DHT22;59358;52.134;5.596;2024-01-15T06:56:24;1.30;99.90
19206;DHT22;59358;52.134;5.596;2024-01-15T06:58:52;1.20;99.90
19206;DHT22;59358;52.134;5.596;2024-01-15T07:01:18;1.10;99.90
19206;DHT22;59358;52.134;5.596;2024-01-15T07:03:45;1.20;99.90
19206;DHT22;59358;52.134;5.596;2024-01-15T07:06:12;1.20;99.90
19206;DHT22;59358;52.134;5.596;2024-01-15T07:08:39;1.20;99.90
19206;DHT22;59358;52.134;5.596;2024-01-15T07:11:07;1.20;99.90
19206;DHT22;59358;52.134;5.596;2024-01-15T07:13:33;1.20;99.90
19206;DHT22;59358;52.134;5.596;2024-01-15T07:16:02;1.30;99.90
19206;DHT22;59358;52.134;5.596;2024-01-15T07:18:29;1.20;99.90
19206;DHT22;59358;52.134;5.596;2024-01-15T07:20:55;1.30;99.90
19206;DHT22;59358;52.134;5.596;2024-01-15T07:23:22;1.30;99.90
19206;DHT22;59358;52.134;5.596;2024-01-15T07:25:49;1.30;99.90
19206;DHT22;59358;52.134;5.596;2024-01-15T07:28:16;1.30;99.90
19206;DHT22;59358;52.134;5.596;2024-01-15T07:30:43;1.20;99.90
19206;DHT22;59358;52.134;5.596;2024-01-15T07:33:11;1.20;99.90
19206;DHT22;59358;52.134;5.596;2024-01-15T07:35:38;1.30;99.90
19206;DHT22;59358;52.134;5.596;2024-01-15T07:38:05;1.20;99.90
19206;DHT22;59358;52.134;5.596;2024-01-15T07:40:32;1.30;99.90
19206;DHT22;59358;52.134;5.596;2024-01-15T07:42:59;1.40;99.90
19206;DHT22;59358;52.134;5.596;2024-01-15T07:45:27;1.40;99.90
19206;DHT22;59358;52.134;5.596;2024-01-15T07:47:53;1.30;99.90
19206;DHT22;59358;52.134;5.596;2024-01-15T07:50:22;1.30;99.90
19206;DHT22;59358;52.134;5.596;2024-01-15T07:52:49;1.40;99.90
19206;DHT22;59358;52.134;5.596;2024-01-15T07:55:16;1.40;99.90
19206;DHT22;59358;52.134;5.596;2024-01-15T07:57:43;1.40;99.90
19206;DHT22;59358;52.134;5.596;2024-01-15T08:00:11;1.30;99.90
19206;DHT22;59358;52.134;5.596;2024-01-15T08:02:37;1.30;99.90
19206;DHT22;59358;52.134;5.596;2024-01-15T08:05:05;1.30;99.90
19206;DHT22;59358;52.134;5.596;2024-01-15T08:07:33;1.30;99.90
19206;DHT22;59358;52.134;5.596;2024-01-15T08:10:00;1.30;99.90
19206;DHT22;59358;52.134;5.596;2024-01-15T08:12:26;1.30;99.90
19206;DHT22;59358;52.134;5.596;2024-01-15T08:14:53;1.20;99.90
19206;DHT22;59358;52.134;5.596;2024-01-15T08:17:20;1.20;99.90
19206;DHT22;59358;52.134;5.596;2024-01-15T08:19:47;1.20;99.90
19206;DHT22;59358;52.134;5.596;2024-01-15T08:22:14;1.20;99.90
19206;DHT22;59358;52.134;5.596;2024-01-15T08:24:42;1.10;99.90
19206;DHT22;59358;52.134;5.596;2024-01-15T08:27:11;1.10;99.90
19206;DHT22;59358;52.134;5.596;2024-01-15T08:29:37;1.10;99.90
19206;DHT22;59358;52.134;5.596;2024-01-15T08:32:05;1.10;99.90
19206;DHT22;59358;52.134;5.596;2024-01-15T08:34:32;1.20;99.90
19206;DHT22;59358;52.134;5.596;2024-01-15T08:36:59;1.30;99.90
19206;DHT22;59358;52.134;5.596;2024-01-15T08:39:25;1.30;99.90
19206;DHT22;59358;52.134;5.596;2024-01-15T08:41:53;1.30;99.90
19206;DHT22;59358;52.134;5.596;2024-01-15T08:44:20;1.30;99.90
19206;DHT22;59358;52.134;5.596;2024-01-15T08:46:47;1.20;99.90
19206;DHT22;59358;52.134;5.596;2024-01-15T08:49:14;1.20;99.90
19206;DHT22;59358;52.134;5.596;2024-01-15T08:51:41;1.20;99.90
19206;DHT22;59358;52.134;5.596;2024-01-15T08:54:07;1.20;99.90
19206;DHT22;59358;52.134;5.596;2024-01-15T08:56:34;1.30;99.90
19206;DHT22;59358;52.134;5.596;2024-01-15T08:59:02;1.20;99.90
19206;DHT22;59358;52.134;5.596;2024-01-15T09:01:32;1.20;99.90
19206;DHT22;59358;52.134;5.596;2024-01-15T09:03:58;1.30;99.90
19206;DHT22;59358;52.134;5.596;2024-01-15T09:06:25;1.20;99.90
19206;DHT22;59358;52.134;5.596;2024-01-15T09:08:52;1.20;99.90
19206;DHT22;59358;52.134;5.596;2024-01-15T09:11:19;1.20;99.90
19206;DHT22;59358;52.134;5.596;2024-01-15T09:13:46;1.30;99.90
19206;DHT22;59358;52.134;5.596;2024-01-15T09:16:14;1.50;99.90
19206;DHT22;59358;52.134;5.596;2024-01-15T09:18:40;1.70;99.90
19206;DHT22;59358;52.134;5.596;2024-01-15T09:21:07;1.70;99.90
19206;DHT22;59358;52.134;5.596;2024-01-15T09:23:34;1.80;99.90
19206;DHT22;59358;52.134;5.596;2024-01-15T09:26:01;2.00;99.90
19206;DHT22;59358;52.134;5.596;2024-01-15T09:28:28;2.10;99.90
19206;DHT22;59358;52.134;5.596;2024-01-15T09:30:54;2.30;99.90
19206;DHT22;59358;52.134;5.596;2024-01-15T09:33:22;2.10;99.90
19206;DHT22;59358;52.134;5.596;2024-01-15T09:35:49;2.00;99.90
19206;DHT22;59358;52.134;5.596;2024-01-15T09:38:16;1.80;99.90
19206;DHT22;59358;52.134;5.596;2024-01-15T09:40:45;1.70;99.90
19206;DHT22;59358;52.134;5.596;2024-01-15T09:43:13;1.70;99.90
19206;DHT22;59358;52.134;5.596;2024-01-15T09:45:41;1.60;99.90
19206;DHT22;59358;52.134;5.596;2024-01-15T09:48:08;1.60;99.90
19206;DHT22;59358;52.134;5.596;2024-01-15T09:50:37;1.50;99.90
19206;DHT22;59358;52.134;5.596;2024-01-15T09:53:05;1.60;99.90
19206;DHT22;59358;52.134;5.596;2024-01-15T09:55:32;1.60;99.90
19206;DHT22;59358;52.134;5.596;2024-01-15T09:58:00;1.80;99.90
19206;DHT22;59358;52.134;5.596;2024-01-15T10:00:28;2.00;99.90
19206;DHT22;59358;52.134;5.596;2024-01-15T10:02:56;2.40;99.90
19206;DHT22;59358;52.134;5.596;2024-01-15T10:05:23;2.50;99.90
19206;DHT22;59358;52.134;5.596;2024-01-15T10:07:51;2.30;99.90
19206;DHT22;59358;52.134;5.596;2024-01-15T10:10:19;2.20;99.90
19206;DHT22;59358;52.134;5.596;2024-01-15T10:12:47;2.00;99.90
19206;DHT22;59358;52.134;5.596;2024-01-15T10:15:14;1.90;99.90
19206;DHT22;59358;52.134;5.596;2024-01-15T10:17:41;1.90;99.90
19206;DHT22;59358;52.134;5.596;2024-01-15T10:20:10;1.90;99.90
19206;DHT22;59358;52.134;5.596;2024-01-15T10:22:39;2.00;99.90
19206;DHT22;59358;52.134;5.596;2024-01-15T10:25:10;2.00;99.90
19206;DHT22;59358;52.134;5.596;2024-01-15T10:27:37;2.10;99.90
19206;DHT22;59358;52.134;5.596;2024-01-15T10:30:04;2.10;99.90
19206;DHT22;59358;52.134;5.596;2024-01-15T10:32:32;2.20;99.90
19206;DHT22;59358;52.134;5.596;2024-01-15T10:34:58;2.40;99.90
19206;DHT22;59358;52.134;5.596;2024-01-15T10:37:25;2.30;99.90
19206;DHT22;59358;52.134;5.596;2024-01-15T10:39:52;2.20;99.90
19206;DHT22;59358;52.134;5.596;2024-01-15T10:42:21;2.00;99.90
19206;DHT22;59358;52.134;5.596;2024-01-15T10:44:47;2.00;99.90
19206;DHT22;59358;52.134;5.596;2024-01-15T10:47:14;2.00;99.90
19206;DHT22;59358;52.134;5.596;2024-01-15T10:49:42;2.00;99.90
19206;DHT22;59358;52.134;5.596;2024-01-15T10:52:09;1.90;99.90
19206;DHT22;59358;52.134;5.596;2024-01-15T10:54:37;2.00;99.90
19206;DHT22;59358;52.134;5.596;2024-01-15T10:57:06;2.10;99.90
19206;DHT22;59358;52.134;5.596;2024-01-15T10:59:34;2.30;99.90
19206;DHT22;59358;52.134;5.596;2024-01-15T11:02:03;2.30;99.90
19206;DHT22;59358;52.134;5.596;2024-01-15T11:04:32;2.30;99.90
19206;DHT22;59358;52.134;5.596;2024-01-15T11:06:58;2.30;99.90
19206;DHT22;59358;52.134;5.596;2024-01-15T11:09:26;2.40;99.90
19206;DHT22;59358;52.134;5.596;2024-01-15T11:12:06;2.60;99.90
19206;DHT22;59358;52.134;5.596;2024-01-15T11:14:35;2.60;99.90
19206;DHT22;59358;52.134;5.596;2024-01-15T11:17:02;2.70;99.90
19206;DHT22;59358;52.134;5.596;2024-01-15T11:19:36;2.90;99.90
19206;DHT22;59358;52.134;5.596;2024-01-15T11:22:06;2.90;99.90
19206;DHT22;59358;52.134;5.596;2024-01-15T11:24:35;2.90;99.90
19206;DHT22;59358;52.134;5.596;2024-01-15T11:27:03;2.80;99.90
19206;DHT22;59358;52.134;5.596;2024-01-15T11:29:32;2.80;99.90
19206;DHT22;59358;52.134;5.596;2024-01-15T11:32:04;2.60;99.90
19206;DHT22;59358;52.134;5.596;2024-01-15T11:34:55;2.70;99.90
19206;DHT22;59358;52.134;5.596;2024-01-15T11:37:24;2.60;99.90
19206;DHT22;59358;52.134;5.596;2024-01-15T11:39:52;2.60;99.90
19206;DHT22;59358;52.134;5.596;2024-01-15T11:42:20;2.60;99.90
19206;DHT22;59358;52.134;5.596;2024-01-15T11:44:47;2.60;99.90
19206;DHT22;59358;52.134;5.596;2024-01-15T11:47:15;2.70;99.90
19206;DHT22;59358;52.134;5.596;2024-01-15T11:50:01;2.90;99.90
19206;DHT22;59358;52.134;5.596;2024-01-15T11:52:33;3.00;99.90
19206;DHT22;59358;52.134;5.596;2024-01-15T11:55:05;3.30;99.90
19206;DHT22;59358;52.134;5.596;2024-01-15T11:57:40;3.70;99.90
19206;DHT22;59358;52.134;5.596;2024-01-15T12:00:10;4.30;99.90
19206;DHT22;59358;52.134;5.596;2024-01-15T12:02:39;4.20;99.90
19206;DHT22;59358;52.134;5.596;2024-01-15T12:05:07;4.00;99.90
19206;DHT22;59358;52.134;5.596;2024-01-15T12:07:34;3.90;99.90
19206;DHT22;59358;52.134;5.596;2024-01-15T12:10:01;3.80;99.90
19206;DHT22;59358;52.134;5.596;2024-01-15T12:12:36;4.10;99.90
19206;DHT22;59358;52.134;5.596;2024-01-15T12:15:04;4.30;99.90
19206;DHT22;59358;52.134;5.596;2024-01-15T12:17:32;4.20;99.90
19206;DHT22;59358;52.134;5.596;2024-01-15T12:20:00;3.90;99.90
19206;DHT22;59358;52.134;5.596;2024-01-15T12:22:34;3.30;99.90
19206;DHT22;59358;52.134;5.596;2024-01-15T12:25:01;2.60;99.90
19206;DHT22;59358;52.134;5.596;2024-01-15T12:27:30;2.30;99.90
19206;DHT22;59358;52.134;5.596;2024-01-15T12:29:58;2.20;99.90
19206;DHT22;59358;52.134;5.596;2024-01-15T12:32:25;2.30;99.90
19206;DHT22;59358;52.134;5.596;2024-01-15T12:34:52;2.50;99.90
19206;DHT22;59358;52.134;5.596;2024-01-15T12:37:20;2.60;99.90
19206;DHT22;59358;52.134;5.596;2024-01-15T12:39:47;2.50;99.90
19206;DHT22;59358;52.134;5.596;2024-01-15T12:42:14;2.70;99.90
19206;DHT22;59358;52.134;5.596;2024-01-15T12:44:42;2.70;99.90
19206;DHT22;59358;52.134;5.596;2024-01-15T12:47:09;3.00;99.90
19206;DHT22;59358;52.134;5.596;2024-01-15T12:49:36;3.30;99.90
19206;DHT22;59358;52.134;5.596;2024-01-15T12:52:04;3.30;99.90
19206;DHT22;59358;52.134;5.596;2024-01-15T12:54:32;3.10;99.90
19206;DHT22;59358;52.134;5.596;2024-01-15T12:56:59;2.80;99.90
19206;DHT22;59358;52.134;5.596;2024-01-15T12:59:26;2.60;99.90
19206;DHT22;59358;52.134;5.596;2024-01-15T13:01:53;2.60;99.90
19206;DHT22;59358;52.134;5.596;2024-01-15T13:04:21;2.60;99.90
19206;DHT22;59358;52.134;5.596;2024-01-15T13:06:49;2.70;99.90
19206;DHT22;59358;52.134;5.596;2024-01-15T13:09:16;2.60;99.90
19206;DHT22;59358;52.134;5.596;2024-01-15T13:11:44;2.60;99.90
19206;DHT22;59358;52.134;5.596;2024-01-15T13:14:11;2.70;99.90
19206;DHT22;59358;52.134;5.596;2024-01-15T13:16:39;2.60;99.90
19206;DHT22;59358;52.134;5.596;2024-01-15T13:19:07;2.50;99.90
19206;DHT22;59358;52.134;5.596;2024-01-15T13:21:34;2.50;99.90
19206;DHT22;59358;52.134;5.596;2024-01-15T13:24:01;2.30;99.90
19206;DHT22;59358;52.134;5.596;2024-01-15T13:26:31;2.20;99.90
19206;DHT22;59358;52.134;5.596;2024-01-15T13:28:59;2.10;99.90
19206;DHT22;59358;52.134;5.596;2024-01-15T13:31:26;2.10;99.90
19206;DHT22;59358;52.134;5.596;2024-01-15T13:33:53;2.10;99.90
19206;DHT22;59358;52.134;5.596;2024-01-15T13:36:20;2.10;99.90
19206;DHT22;59358;52.134;5.596;2024-01-15T13:38:48;2.10;99.90
19206;DHT22;59358;52.134;5.596;2024-01-15T13:41:16;2.20;99.90
19206;DHT22;59358;52.134;5.596;2024-01-15T13:43:44;2.30;99.90
19206;DHT22;59358;52.134;5.596;2024-01-15T13:46:13;2.40;99.90
19206;DHT22;59358;52.134;5.596;2024-01-15T13:48:40;2.50;99.90
19206;DHT22;59358;52.134;5.596;2024-01-15T13:51:07;2.70;99.90
19206;DHT22;59358;52.134;5.596;2024-01-15T13:53:33;3.00;99.90
19206;DHT22;59358;52.134;5.596;2024-01-15T13:56:00;3.20;99.90
19206;DHT22;59358;52.134;5.596;2024-01-15T13:58:27;3.40;99.90
19206;DHT22;59358;52.134;5.596;2024-01-15T14:00:53;3.40;99.90
19206;DHT22;59358;52.134;5.596;2024-01-15T14:03:22;3.50;99.90
19206;DHT22;59358;52.134;5.596;2024-01-15T14:05:48;3.80;99.90
19206;DHT22;59358;52.134;5.596;2024-01-15T14:08:16;3.90;99.90
19206;DHT22;59358;52.134;5.596;2024-01-15T14:10:43;3.50;99.90
19206;DHT22;59358;52.134;5.596;2024-01-15T14:13:10;3.20;99.90
19206;DHT22;59358;52.134;5.596;2024-01-15T14:15:37;2.80;99.90
19206;DHT22;59358;52.134;5.596;2024-01-15T14:18:04;2.70;99.90
19206;DHT22;59358;52.134;5.596;2024-01-15T14:20:32;2.70;99.90
19206;DHT22;59358;52.134;5.596;2024-01-15T14:22:59;2.80;99.90
19206;DHT22;59358;52.134;5.596;2024-01-15T14:25:26;3.20;99.90
19206;DHT22;59358;52.134;5.596;2024-01-15T14:27:53;3.40;99.90
19206;DHT22;59358;52.134;5.596;2024-01-15T14:30:19;3.40;99.90
19206;DHT22;59358;52.134;5.596;2024-01-15T14:32:46;3.30;99.90
19206;DHT22;59358;52.134;5.596;2024-01-15T14:35:13;3.30;99.90
19206;DHT22;59358;52.134;5.596;2024-01-15T14:37:41;3.40;99.90
19206;DHT22;59358;52.134;5.596;2024-01-15T14:40:08;3.50;99.90
19206;DHT22;59358;52.134;5.596;2024-01-15T14:42:36;3.70;99.90
19206;DHT22;59358;52.134;5.596;2024-01-15T14:45:03;3.70;99.90
19206;DHT22;59358;52.134;5.596;2024-01-15T14:47:34;3.80;99.90
19206;DHT22;59358;52.134;5.596;2024-01-15T14:50:01;3.70;99.90
19206;DHT22;59358;52.134;5.596;2024-01-15T14:52:28;3.60;99.90
19206;DHT22;59358;52.134;5.596;2024-01-15T14:54:56;3.40;99.90
19206;DHT22;59358;52.134;5.596;2024-01-15T14:57:23;3.30;99.90
19206;DHT22;59358;52.134;5.596;2024-01-15T14:59:49;3.10;99.90
19206;DHT22;59358;52.134;5.596;2024-01-15T15:02:16;3.00;99.90
19206;DHT22;59358;52.134;5.596;2024-01-15T15:04:43;2.80;99.90
19206;DHT22;59358;52.134;5.596;2024-01-15T15:07:10;2.80;99.90
19206;DHT22;59358;52.134;5.596;2024-01-15T15:09:37;2.70;99.90
19206;DHT22;59358;52.134;5.596;2024-01-15T15:12:05;2.70;99.90
19206;DHT22;59358;52.134;5.596;2024-01-15T15:14:33;2.70;99.90
19206;DHT22;59358;52.134;5.596;2024-01-15T15:17:03;2.60;99.90
19206;DHT22;59358;52.134;5.596;2024-01-15T15:19:31;2.50;99.90
19206;DHT22;59358;52.134;5.596;2024-01-15T15:21:58;2.50;99.90
19206;DHT22;59358;52.134;5.596;2024-01-15T15:24:25;2.40;99.90
19206;DHT22;59358;52.134;5.596;2024-01-15T15:26:52;2.30;99.90
19206;DHT22;59358;52.134;5.596;2024-01-15T15:29:20;2.20;99.90
19206;DHT22;59358;52.134;5.596;2024-01-15T15:31:49;2.20;99.90
19206;DHT22;59358;52.134;5.596;2024-01-15T15:34:16;2.10;99.90
19206;DHT22;59358;52.134;5.596;2024-01-15T15:36:42;2.10;99.90
19206;DHT22;59358;52.134;5.596;2024-01-15T15:39:09;2.10;99.90
19206;DHT22;59358;52.134;5.596;2024-01-15T15:41:36;2.20;99.90
19206;DHT22;59358;52.134;5.596;2024-01-15T15:44:03;2.30;99.90
19206;DHT22;59358;52.134;5.596;2024-01-15T15:46:31;2.30;99.90